| time (UTC) | temp F | wind direction | speed knots | gust knots | rain 1hr in | rain 24hr in | rain mn in | humidity % | barometer mb |
| 20260506143027 | 62 | 181 | 3.5 | 12.2 | 0.00 | 0.00 | 0.00 | 82 | 1009.6 |
| 20260506141515 | 63 | 200 | 7.0 | 12.2 | 0.00 | 0.00 | 0.00 | 80 | 1010.0 |
| 20260506140014 | 63 | 176 | 6.1 | 15.6 | 0.00 | 0.00 | 0.00 | 80 | 1010.0 |
| 20260506134512 | 63 | 224 | 6.1 | 13.9 | 0.00 | 0.00 | 0.00 | 81 | 1010.3 |
| 20260506133011 | 62 | 193 | 6.1 | 14.8 | 0.00 | 0.00 | 0.00 | 82 | 1010.4 |
| 20260506131511 | 62 | 354 | 5.2 | 10.4 | 0.00 | 0.00 | 0.00 | 82 | 1010.1 |
| 20260506130012 | 61 | 241 | 7.0 | 12.2 | 0.00 | 0.00 | 0.00 | 83 | 1010.1 |
| 20260506124508 | 62 | 231 | 4.3 | 10.4 | 0.00 | 0.00 | 0.00 | 83 | 1010.2 |
| 20260506123008 | 62 | 165 | 5.2 | 10.4 | 0.00 | 0.00 | 0.00 | 82 | 1010.2 |
| 20260506121505 | 62 | 210 | 4.3 | 11.3 | 0.00 | 0.00 | 0.00 | 83 | 1010.4 |
| 20260506120005 | 60 | 161 | 5.2 | 13.9 | 0.00 | 0.00 | 0.00 | 85 | 1010.7 |
| 20260506114506 | 60 | 191 | 3.5 | 11.3 | 0.00 | 0.00 | 0.00 | 86 | 1010.6 |
| 20260506113003 | 59 | 183 | 3.5 | 11.3 | 0.00 | 0.00 | 0.00 | 88 | 1010.4 |
| 20260506111502 | 58 | 211 | 4.3 | 10.4 | 0.00 | 0.00 | 0.00 | 89 | 1010.4 |
| 20260506110002 | 58 | 200 | 4.3 | 13.9 | 0.00 | 0.00 | 0.00 | 90 | 1010.6 |
| 20260506104601 | 57 | 212 | 6.1 | 13.9 | 0.00 | 0.00 | 0.00 | 90 | 1010.4 |
| 20260506103119 | 57 | 202 | 3.5 | 11.3 | 0.00 | 0.00 | 0.00 | 91 | 1010.3 |
| 20260506101557 | 56 | 157 | 4.3 | 9.6 | 0.00 | 0.00 | 0.00 | 91 | 1010.2 |
| 20260506100056 | 56 | 203 | 5.2 | 11.3 | 0.00 | 0.00 | 0.00 | 91 | 1010.2 |
| 20260506094604 | 56 | 219 | 3.5 | 10.4 | 0.00 | 0.00 | 0.00 | 91 | 1010.0 |
| 20260506093053 | 56 | 201 | 3.5 | 12.2 | 0.00 | 0.00 | 0.00 | 91 | 1010.1 |
| 20260506091556 | 56 | 174 | 5.2 | 11.3 | 0.00 | 0.00 | 0.00 | 90 | 1010.0 |
| 20260506090054 | 56 | 222 | 6.1 | 17.4 | 0.00 | 0.00 | 0.00 | 90 | 1010.2 |
| 20260506084601 | 56 | 210 | 6.1 | 13.0 | 0.00 | 0.00 | 0.00 | 90 | 1010.2 |
| 20260506083044 | 56 | 216 | 6.1 | 13.0 | 0.00 | 0.00 | 0.00 | 90 | 1010.3 |
| 20260506081544 | 56 | 248 | 4.3 | 11.3 | 0.00 | 0.00 | 0.00 | 90 | 1010.3 |
| 20260506073040 | 57 | 191 | 7.0 | 15.6 | 0.00 | 0.00 | 0.00 | 89 | 1010.6 |
| 20260506071535 | 57 | 229 | 6.1 | 13.0 | 0.00 | 0.00 | 0.00 | 88 | 1010.6 |
| 20260506061543 | 57 | 217 | 6.1 | 12.2 | 0.00 | 0.00 | 0.00 | 87 | 1010.7 |
| 20260506044517 | 60 | 210 | 4.3 | 13.0 | 0.00 | 0.00 | 0.00 | 83 | 1011.0 |
| 20260506043010 | 60 | 226 | 7.0 | 13.9 | 0.00 | 0.00 | 0.00 | 82 | 1011.0 |
| 20260506041505 | 61 | 191 | 7.0 | 11.3 | 0.00 | 0.00 | 0.00 | 81 | 1010.9 |
| 20260506040001 | 62 | 161 | 7.0 | 14.8 | 0.00 | 0.00 | 0.00 | 80 | 1011.0 |
| 20260506034502 | 62 | 181 | 4.3 | 14.8 | 0.00 | 0.00 | 0.00 | 79 | 1010.9 |
| 20260506033004 | 63 | 215 | 6.1 | 20.9 | 0.00 | 0.00 | 0.00 | 78 | 1010.8 |
| 20260506031600 | 63 | 163 | 10.4 | 16.5 | 0.00 | 0.00 | 0.00 | 78 | 1010.8 |
| 20260506030059 | 63 | 248 | 5.2 | 14.8 | 0.00 | 0.00 | 0.00 | 77 | 1010.9 |
| 20260506024600 | 63 | 213 | 7.0 | 15.6 | 0.00 | 0.00 | 0.00 | 77 | 1010.9 |
| 20260506023058 | 62 | 174 | 7.8 | 15.6 | 0.00 | 0.00 | 0.00 | 76 | 1010.8 |
| 20260506021605 | 63 | 186 | 7.0 | 20.0 | 0.00 | 0.00 | 0.00 | 76 | 1011.0 |
| 20260506020056 | 63 | 231 | 6.1 | 12.2 | 0.00 | 0.00 | 0.00 | 75 | 1010.9 |
| 20260506014555 | 63 | 200 | 6.1 | 14.8 | 0.00 | 0.00 | 0.00 | 74 | 1010.9 |
| 20260506013104 | 64 | 216 | 8.7 | 17.4 | 0.00 | 0.00 | 0.00 | 72 | 1010.6 |
| 20260506011605 | 65 | 206 | 5.2 | 20.0 | 0.00 | 0.00 | 0.00 | 70 | 1010.5 |
| 20260506010054 | 66 | 169 | 7.8 | 14.8 | 0.00 | 0.00 | 0.00 | 68 | 1010.3 |
| 20260506004553 | 66 | 196 | 6.1 | 15.6 | 0.00 | 0.00 | 0.00 | 68 | 1010.1 |
| 20260506003054 | 67 | 144 | 9.6 | 18.2 | 0.00 | 0.00 | 0.00 | 67 | 1010.0 |
| 20260506001553 | 67 | 219 | 8.7 | 20.9 | 0.00 | 0.00 | 0.00 | 67 | 1009.9 |
| 20260506000051 | 67 | 220 | 5.2 | 17.4 | 0.00 | 0.00 | 0.00 | 67 | 1009.7 |
| 20260505234600 | 67 | 225 | 5.2 | 17.4 | 0.00 | 0.00 | 0.00 | 67 | 1009.7 |
| 20260505233051 | 67 | 172 | 6.1 | 13.0 | 0.00 | 0.00 | 0.00 | 67 | 1009.5 |
| 20260505231604 | 66 | 189 | 7.0 | 19.1 | 0.00 | 0.00 | 0.00 | 67 | 1009.2 |
| 20260505230052 | 67 | 206 | 7.8 | 16.5 | 0.00 | 0.00 | 0.00 | 66 | 1009.0 |
| 20260505224549 | 69 | 164 | 7.8 | 16.5 | 0.00 | 0.00 | 0.00 | 63 | 1008.9 |
| 20260505223048 | 69 | 198 | 10.4 | 19.1 | 0.00 | 0.00 | 0.00 | 62 | 1009.0 |
| 20260505221553 | 70 | 350 | 7.8 | 18.2 | 0.00 | 0.00 | 0.00 | 62 | 1008.7 |
| 20260505220046 | 70 | 171 | 10.4 | 22.6 | 0.00 | 0.00 | 0.00 | 62 | 1008.8 |
| 20260505214603 | 70 | 245 | 8.7 | 16.5 | 0.00 | 0.00 | 0.00 | 62 | 1008.5 |
| 20260505213044 | 70 | 167 | 11.3 | 17.4 | 0.00 | 0.00 | 0.00 | 63 | 1008.6 |
| 20260505211543 | 69 | 138 | 8.7 | 17.4 | 0.00 | 0.00 | 0.00 | 64 | 1008.6 |
| 20260505210044 | 70 | 210 | 10.4 | 23.5 | 0.00 | 0.00 | 0.00 | 63 | 1008.4 |
| 20260505204541 | 70 | 212 | 10.4 | 21.7 | 0.00 | 0.00 | 0.00 | 62 | 1008.5 |
| 20260505203042 | 72 | 224 | 9.6 | 21.7 | 0.00 | 0.00 | 0.00 | 61 | 1008.6 |
| 20260505201539 | 72 | 152 | 9.6 | 20.9 | 0.00 | 0.00 | 0.00 | 61 | 1008.8 |
| 20260505200044 | 73 | 207 | 7.0 | 18.2 | 0.00 | 0.00 | 0.00 | 60 | 1008.7 |
| 20260505194536 | 72 | 209 | 8.7 | 22.6 | 0.00 | 0.00 | 0.00 | 61 | 1008.8 |
| 20260505193036 | 72 | 245 | 7.0 | 17.4 | 0.00 | 0.00 | 0.00 | 62 | 1009.1 |
| 20260505191532 | 71 | 167 | 5.2 | 16.5 | 0.00 | 0.00 | 0.00 | 63 | 1009.4 |
| 20260505190039 | 71 | 232 | 7.8 | 20.0 | 0.00 | 0.00 | 0.00 | 62 | 1009.6 |
| 20260505184530 | 73 | 171 | 5.2 | 13.0 | 0.00 | 0.00 | 0.00 | 62 | 1009.7 |
| 20260505183034 | 72 | 212 | 3.5 | 17.4 | 0.00 | 0.00 | 0.00 | 64 | 1009.8 |
| 20260505181526 | 72 | 195 | 9.6 | 16.5 | 0.00 | 0.00 | 0.00 | 63 | 1009.8 |
| 20260505180025 | 72 | 148 | 4.3 | 12.2 | 0.00 | 0.00 | 0.00 | 63 | 1010.1 |
| 20260505174523 | 72 | 205 | 6.1 | 14.8 | 0.00 | 0.00 | 0.00 | 62 | 1010.4 |
| 20260505173021 | 73 | 213 | 7.0 | 14.8 | 0.00 | 0.00 | 0.00 | 61 | 1010.2 |
| 20260505171520 | 74 | 163 | 9.6 | 14.8 | 0.00 | 0.00 | 0.00 | 59 | 1010.3 |
| 20260505170021 | 74 | 221 | 6.1 | 16.5 | 0.00 | 0.00 | 0.00 | 60 | 1010.4 |
| 20260505164517 | 74 | 198 | 6.1 | 12.2 | 0.00 | 0.00 | 0.00 | 59 | 1010.4 |
| 20260505163019 | 75 | 229 | 6.1 | 14.8 | 0.00 | 0.00 | 0.00 | 57 | 1010.7 |
| 20260505161518 | 75 | 169 | 7.0 | 13.9 | 0.00 | 0.00 | 0.00 | 57 | 1010.7 |
| 20260505153008 | 73 | 245 | 2.6 | 13.0 | 0.00 | 0.00 | 0.00 | 59 | 1011.1 |
| 20260505151506 | 72 | 196 | 5.2 | 13.0 | 0.00 | 0.00 | 0.00 | 60 | 1011.3 |